• Join FlightAware (Why Join?)
  • Login
  • US Flag 
12:12AM EDT


 

Airport Tracker/Info


-or-


 

Live Flight TrackerFlight Track Log ✈ AAL1653 ✈ 24-Apr-2013 ✈ KRDU - KORD

Flight Track Log - Related Links

Times and Time Zones

All times are in EDT time to prevent confusion due to time zone crossing. See the AAL1653 flight status page for this flight to view local times or setup timezone preferences in your user account.

Time Position Orientation Groundspeed Altitude Reporting Facility
EDT Latitude Longitude Course Direction KTS MPH feet Rate Location/Type
02:36PM 35.8708 -78.8089 180° South 154 177 1,400  Level Washington Center
02:36PM 35.8450 -78.8361 221° Southwest 162 186 2,600 1,800 Climbing Washington Center
02:37PM 35.8378 -78.8717 256° West 211 243 3,800 2,460 Climbing Washington Center
02:38PM 35.8422 -79.1597 265° West  Level FlightAware Approximate
02:38PM 35.8375 -78.9561 270° West 221 254 6,600  Level Washington Center
02:39PM 35.8333 -79.2858 270° West  Level FlightAware Approximate
02:39PM 35.8414 -79.0408 273° West 241 277 9,500  Level Washington Center
02:40PM 35.8210 -79.4114 262° West  Level FlightAware Approximate
02:40PM 35.8389 -79.1253 268° West 266 306 11,100  Level Washington Center
02:41PM 35.8132 -79.5333 180° South  Level FlightAware Approximate
02:42PM 35.8328 -79.3439 268° West 352 405 15,600  Level Atlanta Center
02:43PM 35.8228 -79.4647 264° West 359 413 17,900 2,160 Climbing Atlanta Center
02:44PM 35.8086 -79.5883 262° West 364 419 20,000 1,920 Climbing Atlanta Center
02:45PM 35.7894 -79.6944 257° West 364 419 21,800 1,620 Climbing Atlanta Center
02:46PM 35.7669 -79.8261 258° West 377 434 23,300 1,620 Climbing Atlanta Center
02:47PM 35.7386 -79.9733 257° West 399 459 25,100 1,500 Climbing Atlanta Center
02:48PM 35.7158 -80.1103 258° West 404 465 26,400 1,320 Climbing Atlanta Center
02:49PM 35.6911 -80.2494 258° West 410 472 27,800 780 Climbing Atlanta Center
02:50PM 35.6683 -80.3911 259° West 425 489 28,000 60 Climbing Atlanta Center
02:51PM 35.6722 -80.5264 272° West 404 465 28,000 420 Level Atlanta Center
02:52PM 35.7361 -80.6489 303° West 398 458 28,900 1,320 Climbing Atlanta Center
02:53PM 35.7936 -80.7669 301° West 404 465 30,700 1,500 Climbing Atlanta Center
02:54PM 35.8531 -80.8850 302° West 404 465 32,000 420 Climbing Atlanta Center
02:56PM 35.9672 -81.1192 301° West 399 459 32,000 300 Level Atlanta Center
02:57PM 36.0222 -81.2378 300° West 394 453 33,000 960 Climbing Atlanta Center
02:58PM 36.0747 -81.3517 300° West 394 453 34,000 480 Climbing Atlanta Center
02:59PM 36.1314 -81.4653 302° West 389 448 34,000  Level Atlanta Center
03:00PM 36.1839 -81.5819 299° West 389 448 34,000  Level Atlanta Center
03:01PM 36.2383 -81.6989 300° West 387 445 34,000  Level Atlanta Center
03:02PM 36.2925 -81.8131 301° West 387 445 34,000  Level Atlanta Center
03:03PM 36.3447 -81.9278 299° West 382 440 34,000  Level Atlanta Center
03:04PM 36.3986 -82.0450 300° West 382 440 34,000  Level Atlanta Center
03:05PM 36.4631 -82.1517 307° West 382 440 34,000  Level Atlanta Center
03:07PM 36.6283 -82.3081 323° Northwest 405 466 34,000  Level Indianapolis Center
03:08PM 36.7158 -82.3922 322° Northwest 400 460 34,000  Level Indianapolis Center
03:09PM 36.8217 -82.4933 323° Northwest 411 473 34,000  Level Indianapolis Center
03:10PM 36.9103 -82.5778 323° Northwest 405 466 34,000  Level Indianapolis Center
03:11PM 36.9992 -82.6644 322° Northwest 410 472 34,000  Level Indianapolis Center
03:12PM 37.0889 -82.7506 323° Northwest 411 473 34,000  Level Indianapolis Center
03:13PM 37.1939 -82.8522 322° Northwest 413 475 34,000  Level Indianapolis Center
03:14PM 37.2833 -82.9411 322° Northwest 413 475 34,000  Level Indianapolis Center
03:15PM 37.3733 -83.0306 322° Northwest 413 475 34,000  Level Indianapolis Center
03:16PM 37.4639 -83.1186 322° Northwest 414 476 34,000  Level Indianapolis Center
03:17PM 37.5539 -83.2078 322° Northwest 412 474 34,000  Level Indianapolis Center
03:18PM 37.6578 -83.3108 322° Northwest 408 470 34,000  Level Indianapolis Center
03:19PM 37.7461 -83.3975 322° Northwest 405 466 34,000  Level Indianapolis Center
03:20PM 37.8333 -83.4853 322° Northwest 403 464 34,000  Level Indianapolis Center
03:21PM 37.9228 -83.5719 323° Northwest 405 466 34,000  Level Indianapolis Center
03:22PM 38.0114 -83.6619 321° Northwest 408 470 34,000  Level Indianapolis Center
03:23PM 38.1144 -83.7647 322° Northwest 404 465 34,000  Level Indianapolis Center
03:24PM 38.2053 -83.8547 322° Northwest 413 475 34,000  Level Indianapolis Center
03:25PM 38.3017 -83.9375 326° Northwest 419 482 34,000  Level Indianapolis Center
03:26PM 38.4022 -84.0131 330° Northwest 420 483 34,000  Level Indianapolis Center
03:27PM 38.5006 -84.0906 328° Northwest 418 481 34,000  Level Indianapolis Center
03:28PM 38.6183 -84.1819 329° Northwest 422 486 34,000 -60 Level Indianapolis Center
03:29PM 38.7239 -84.2642 329° Northwest 428 493 33,900  Descending Indianapolis Center
03:30PM 38.8247 -84.3400 330° Northwest 419 482 34,000  Climbing Indianapolis Center
03:31PM 38.9222 -84.4200 327° Northwest 412 474 33,900 -720 Descending Indianapolis Center
03:32PM 39.0197 -84.4950 329° Northwest 402 463 32,600 -1,620 Descending Indianapolis Center
03:33PM 39.1197 -84.5744 328° Northwest 416 479 30,600 -1,740 Descending Indianapolis Center
03:34PM 39.2203 -84.6525 329° Northwest 417 480 29,100 -1,260 Descending Indianapolis Center
03:35PM 39.3194 -84.7297 329° Northwest 413 475 28,000 -600 Descending Indianapolis Center
03:36PM 39.4197 -84.8089 329° Northwest 416 479 27,900  Descending Indianapolis Center
03:38PM 39.5319 -84.8981 329° Northwest 420 483 28,000  Climbing Indianapolis Center
03:39PM 39.6322 -84.9778 329° Northwest 421 484 28,000  Level Indianapolis Center
03:40PM 39.7325 -85.0581 328° Northwest 420 483 28,000  Level Indianapolis Center
03:41PM 39.8328 -85.1386 328° Northwest 421 484 28,000 -720 Level Indianapolis Center
03:42PM 39.9500 -85.2314 329° Northwest 422 486 26,600 -1,020 Descending Indianapolis Center
03:43PM 40.0467 -85.3103 328° Northwest 412 474 26,000 -300 Descending Indianapolis Center
03:44PM 40.1431 -85.3894 328° Northwest 408 470 26,000  Level Indianapolis Center
03:45PM 40.2403 -85.4686 328° Northwest 409 471 26,000 -300 Level Indianapolis Center
03:46PM 40.3381 -85.5494 328° Northwest 412 474 25,500 -660 Descending Indianapolis Center
03:47PM 40.4331 -85.6264 328° Northwest 403 464 24,700 -780 Descending Indianapolis Center
03:48PM 40.5494 -85.7064 332° Northwest 405 466 24,000 -900 Descending Indianapolis Center
03:49PM 40.6564 -85.7536 341° North 404 465 22,900 -900 Descending Indianapolis Center
03:50PM 40.7853 -85.8106 342° North 399 459 22,000 -420 Descending Chicago Center
03:51PM 40.8783 -85.8711 334° Northwest 378 435 22,000  Level Chicago Center
03:52PM 40.9550 -85.9586 319° Northwest 365 420 22,000  Level Chicago Center
03:53PM 41.0314 -86.0481 319° Northwest 366 421 22,000  Level Chicago Center
03:54PM 41.1083 -86.1397 318° Northwest 370 426 22,000 -420 Level Chicago Center
03:55PM 41.1867 -86.2294 319° Northwest 370 426 21,200 -1,080 Descending Chicago Center
03:56PM 41.2608 -86.3197 318° Northwest 362 417 19,800 -1,620 Descending Chicago Center
03:57PM 41.3508 -86.4239 319° Northwest 360 414 17,900 -1,560 Descending Chicago Center
03:58PM 41.4231 -86.5103 318° Northwest 352 405 16,600 -1,260 Descending Chicago Center
03:59PM 41.4914 -86.5922 318° Northwest 336 387 15,300 -1,320 Descending Chicago Center
04:01PM 41.6000 -86.7167 319° Northwest 318 366 13,200 -1,260 Descending Chicago TRACON
04:01PM 41.6239 -86.7503 314° West 316 364 12,700 -1,080 Descending Chicago Center
04:03PM 41.7228 -86.8003 339° North 331 381 11,600 -840 Descending Chicago Center
04:04PM 41.8106 -86.8153 353° North 322 371 11,000 -360 Descending Chicago Center
04:05PM 41.8828 -86.8442 343° North 282 325 10,900 -480 Descending Chicago Center
04:06PM 41.9292 -86.9381 304° West 304 350 10,100 -540 Descending Chicago Center
04:07PM 41.9672 -87.0406 297° West 309 356 9,900 -720 Descending Chicago Center
04:08PM 41.9850 -87.1572 282° West 275 316 8,700 -1,260 Descending Chicago Center
04:09PM 41.9836 -87.2517 269° West 258 297 7,300 -840 Descending Chicago Center
04:10PM 41.9831 -87.3494 270° West 261 300 7,000 -180 Descending Chicago Center
04:11PM 41.9822 -87.4428 269° West 254 292 7,000 -300 Level Chicago Center
04:12PM 41.9831 -87.5328 271° West 245 282 6,400 -1,200 Descending Chicago Center
04:13PM 41.9836 -87.6375 270° West 240 276 4,600 -1,500 Descending Chicago Center
04:14PM 41.9847 -87.7156 271° West 229 264 3,400 -1,200 Descending Chicago Center